Time;durP1;ratioP1;P1;durP2;ratioP2;P2;SDS_P1;SDS_P2;PMS_P1;PMS_P2;Temp;Humidity;BMP_temperature;BMP_pressure;BME280_temperature;BME280_humidity;BME280_pressure;Samples;Min_cycle;Max_cycle;Signal;HPM_P1;HPM_P2
2023/05/15 00:00:05;;;;;;;;;36.67;29.33;;;;;-143.57;100.00;65101.44;5119838;27;45377;-41
2023/05/15 00:02:33;;;;;;;;;34.33;30.33;;;;;-143.57;100.00;65101.44;5119531;27;45449;-42
2023/05/15 00:04:58;;;;;;;;;39.33;33.67;;;;;-143.57;100.00;65101.44;5119448;27;45310;-41
2023/05/15 00:07:24;;;;;;;;;39.67;34.00;;;;;-143.57;100.00;65101.44;5120121;27;45477;-43
2023/05/15 00:09:49;;;;;;;;;42.00;33.33;;;;;-143.57;100.00;65101.44;5119398;27;46083;-41
2023/05/15 00:12:14;;;;;;;;;41.67;31.67;;;;;-143.57;100.00;65101.44;5119688;27;45302;-41
2023/05/15 00:14:40;;;;;;;;;53.67;35.67;;;;;-143.57;100.00;65101.44;5119663;27;45342;-45
2023/05/15 00:17:06;;;;;;;;;44.33;34.00;;;;;-143.57;100.00;65101.44;5119165;27;45381;-41
2023/05/15 00:19:31;;;;;;;;;41.67;34.67;;;;;-143.57;100.00;65101.44;5119527;27;45341;-41
2023/05/15 00:21:57;;;;;;;;;45.00;35.33;;;;;-143.57;100.00;65101.44;5119297;27;45459;-41
2023/05/15 00:24:22;;;;;;;;;37.67;34.00;;;;;-143.57;100.00;65101.44;5119208;27;45349;-41
2023/05/15 00:26:47;;;;;;;;;43.33;35.33;;;;;-143.57;100.00;65101.44;5119406;27;45598;-41
2023/05/15 00:29:13;;;;;;;;;50.00;36.67;;;;;-143.57;100.00;65101.44;5119400;27;46238;-41
2023/05/15 00:31:38;;;;;;;;;49.67;39.67;;;;;-143.57;100.00;65101.44;5119241;27;45372;-41
2023/05/15 00:34:03;;;;;;;;;51.67;37.00;;;;;-143.57;100.00;65101.44;5119884;27;45334;-43
2023/05/15 00:36:29;;;;;;;;;52.67;39.67;;;;;-143.57;100.00;65101.44;5120442;27;45459;-44
2023/05/15 00:38:55;;;;;;;;;39.67;34.33;;;;;-143.57;100.00;65101.44;5120356;27;46385;-44
2023/05/15 00:41:21;;;;;;;;;43.67;34.67;;;;;-143.57;100.00;65101.44;5119925;27;45267;-42
2023/05/15 00:43:49;;;;;;;;;45.00;37.33;;;;;-143.57;100.00;65101.44;5120089;27;45303;-41
2023/05/15 00:46:15;;;;;;;;;56.33;39.67;;;;;-143.57;100.00;65101.44;5119157;27;45397;-41
2023/05/15 00:48:42;;;;;;;;;52.67;37.33;;;;;-143.57;100.00;65101.44;5118969;27;45454;-48
2023/05/15 00:51:08;;;;;;;;;43.67;37.33;;;;;-143.57;100.00;65101.44;5118887;27;45404;-43
2023/05/15 00:53:34;;;;;;;;;47.67;37.33;;;;;-143.57;100.00;65101.44;5118974;27;45307;-43
2023/05/15 00:56:01;;;;;;;;;54.33;38.00;;;;;-143.57;100.00;65101.44;5119380;27;45935;-42
2023/05/15 00:58:28;;;;;;;;;75.50;51.00;;;;;-143.57;100.00;65101.44;5118638;27;45355;-44
2023/05/15 01:00:55;;;;;;;;;71.25;56.25;;;;;-143.57;100.00;65101.44;5118680;27;45305;-41
2023/05/15 01:03:20;;;;;;;;;55.50;44.25;;;;;-143.57;100.00;65101.44;5100590;27;45368;-41
2023/05/15 01:05:45;;;;;;;;;50.67;38.67;;;;;-143.57;100.00;65101.44;5118681;27;45310;-42
2023/05/15 01:08:38;;;;;;;;;52.67;40.33;;;;;-143.57;100.00;65101.44;5118737;27;45477;-43
2023/05/15 01:11:06;;;;;;;;;53.33;40.00;;;;;-143.57;100.00;65101.44;5118775;27;45339;-40
2023/05/15 01:13:31;;;;;;;;;57.33;40.00;;;;;-143.57;100.00;65101.44;5118452;27;45494;-42
2023/05/15 01:15:58;;;;;;;;;51.33;38.67;;;;;-143.57;100.00;65101.44;5118743;27;45290;-43
2023/05/15 01:18:24;;;;;;;;;47.00;41.67;;;;;-143.57;100.00;65101.44;5118856;27;46101;-43
2023/05/15 01:21:15;;;;;;;;;47.33;36.00;;;;;-143.57;100.00;65101.44;5118321;27;45317;-40
2023/05/15 01:23:41;;;;;;;;;53.33;41.33;;;;;-143.57;100.00;65101.44;5118334;27;45381;-43
2023/05/15 01:26:27;;;;;;;;;54.67;41.00;;;;;-143.57;100.00;65101.44;5118619;27;45485;-40
2023/05/15 01:29:03;;;;;;;;;53.33;37.67;;;;;-143.57;100.00;65101.44;5117041;27;46217;-41
2023/05/15 01:31:32;;;;;;;;;56.50;41.50;;;;;-143.57;100.00;65101.44;5118155;27;45426;-41
2023/05/15 01:34:02;;;;;;;;;58.33;40.33;;;;;-143.57;100.00;65101.44;5118028;27;45499;-41
2023/05/15 01:36:31;;;;;;;;;55.33;43.00;;;;;-143.57;100.00;65101.44;5118366;27;45461;-41
2023/05/15 01:39:01;;;;;;;;;53.75;39.75;;;;;-143.57;100.00;65101.44;5118102;27;45260;-40
2023/05/15 01:41:40;;;;;;;;;51.67;37.00;;;;;-143.57;100.00;65101.44;5109732;27;45464;-40
2023/05/15 01:44:07;;;;;;;;;55.00;42.00;;;;;-143.57;100.00;65101.44;5118197;27;45373;-40
2023/05/15 01:46:37;;;;;;;;;47.33;38.33;;;;;-143.57;100.00;65101.44;5117361;27;45567;-40
2023/05/15 01:49:03;;;;;;;;;52.33;40.67;;;;;-143.57;100.00;65101.44;5117993;27;45442;-41
2023/05/15 01:51:30;;;;;;;;;56.67;44.00;;;;;-143.57;100.00;65101.44;5117905;27;45402;-39
2023/05/15 01:53:58;;;;;;;;;51.33;41.67;;;;;-143.57;100.00;65101.44;5118189;27;45314;-40
2023/05/15 01:56:25;;;;;;;;;54.67;40.67;;;;;-143.57;100.00;65101.44;5118204;27;45611;-41
2023/05/15 01:58:52;;;;;;;;;47.33;39.33;;;;;-143.57;100.00;65101.44;5117520;27;46239;-40
2023/05/15 02:01:18;;;;;;;;;51.33;39.67;;;;;-143.57;100.00;65101.44;5117763;27;45370;-41
2023/05/15 02:03:44;;;;;;;;;58.33;40.67;;;;;-143.57;100.00;65101.44;5118013;27;45535;-41
2023/05/15 02:06:12;;;;;;;;;56.67;40.33;;;;;-143.57;100.00;65101.44;5117868;27;45295;-42
2023/05/15 02:08:39;;;;;;;;;54.00;39.67;;;;;-143.57;100.00;65101.44;5117190;27;46428;-41
2023/05/15 02:11:05;;;;;;;;;48.33;40.00;;;;;-143.57;100.00;65101.44;5116745;27;45323;-41
2023/05/15 02:13:33;;;;;;;;;54.00;40.00;;;;;-143.57;100.00;65101.44;5117983;27;45396;-41
2023/05/15 02:15:58;;;;;;;;;52.67;39.33;;;;;-143.57;100.00;65101.44;5117602;27;45293;-43
2023/05/15 02:18:24;;;;;;;;;57.00;42.00;;;;;-143.57;100.00;65101.44;5117518;27;46281;-42
2023/05/15 02:20:49;;;;;;;;;56.00;39.33;;;;;-143.57;100.00;65101.44;5117771;27;45426;-41
2023/05/15 02:23:14;;;;;;;;;51.33;39.67;;;;;-143.57;100.00;65101.44;5117666;27;45366;-41
2023/05/15 02:26:03;;;;;;;;;58.25;41.75;;;;;-143.57;100.00;65101.44;5118151;27;45200;-41
2023/05/15 02:28:46;;;;;;;;;54.00;41.00;;;;;-143.57;100.00;65101.44;5117500;27;46586;-42
2023/05/15 02:31:35;;;;;;;;;56.50;42.00;;;;;-143.57;100.00;65101.44;5117319;27;45407;-41
2023/05/15 02:34:17;;;;;;;;;56.75;42.50;;;;;-143.57;100.00;65101.44;5117467;27;45351;-41
2023/05/15 02:36:47;;;;;;;;;57.50;42.00;;;;;-143.57;100.00;65101.44;5117851;27;45253;-42
2023/05/15 02:39:15;;;;;;;;;57.25;41.50;;;;;-143.57;100.00;65101.44;5117182;27;47117;-42
2023/05/15 02:41:42;;;;;;;;;59.75;42.00;;;;;-143.57;100.00;65101.44;5119819;27;45349;-41
2023/05/15 02:44:09;;;;;;;;;55.75;40.75;;;;;-143.57;100.00;65101.44;5121072;27;45416;-41
2023/05/15 02:46:36;;;;;;;;;56.00;44.75;;;;;-143.57;100.00;65101.44;5121281;27;45242;-42
2023/05/15 02:49:02;;;;;;;;;51.50;39.25;;;;;-143.57;100.00;65101.44;5120877;27;45443;-41
2023/05/15 02:51:28;;;;;;;;;62.50;44.75;;;;;-143.57;100.00;65101.44;5120646;27;45323;-41
2023/05/15 02:53:54;;;;;;;;;50.25;40.75;;;;;-143.57;100.00;65101.44;5120878;27;45812;-41
2023/05/15 02:56:20;;;;;;;;;62.00;46.75;;;;;-143.57;100.00;65101.44;5121226;27;45407;-39
2023/05/15 02:58:45;;;;;;;;;60.25;41.75;;;;;-143.57;100.00;65101.44;5120701;27;47299;-41
2023/05/15 03:01:11;;;;;;;;;46.33;37.00;;;;;-143.57;100.00;65101.44;5120879;27;45351;-41
2023/05/15 03:03:36;;;;;;;;;52.00;39.67;;;;;-143.57;100.00;65101.44;5121058;27;45408;-42
2023/05/15 03:06:02;;;;;;;;;53.67;40.00;;;;;-143.57;100.00;65101.44;5120920;27;45294;-42
2023/05/15 03:08:27;;;;;;;;;57.33;38.00;;;;;-143.57;100.00;65101.44;5120664;27;46022;-40
2023/05/15 03:10:53;;;;;;;;;57.33;41.67;;;;;-143.57;100.00;65101.44;5136763;27;45399;-41
2023/05/15 03:13:19;;;;;;;;;57.25;38.75;;;;;-143.57;100.00;65101.44;5120998;27;45261;-41
2023/05/15 03:15:44;;;;;;;;;54.50;42.25;;;;;-143.57;100.00;65101.44;5119978;27;45704;-41
2023/05/15 03:18:09;;;;;;;;;58.50;42.00;;;;;-143.57;100.00;65101.44;5120524;27;45480;-41
2023/05/15 03:20:35;;;;;;;;;61.00;42.00;;;;;-143.57;100.00;65101.44;5120850;27;45526;-41
2023/05/15 03:23:00;;;;;;;;;57.50;40.50;;;;;-143.57;100.00;65101.44;5120500;27;45442;-42
2023/05/15 03:25:26;;;;;;;;;55.75;40.25;;;;;-143.57;100.00;65101.44;5120687;27;45418;-41
2023/05/15 03:27:51;;;;;;;;;56.00;41.25;;;;;-143.57;100.00;65101.44;5120337;27;45685;-41
2023/05/15 03:30:16;;;;;;;;;58.00;43.50;;;;;-143.57;100.00;65101.44;5120154;27;45484;-41
2023/05/15 03:32:42;;;;;;;;;56.25;41.25;;;;;-143.57;100.00;65101.44;5120842;27;45344;-41
2023/05/15 03:35:08;;;;;;;;;52.50;41.00;;;;;-143.57;100.00;65101.44;5120719;27;45239;-40
2023/05/15 03:37:33;;;;;;;;;59.50;43.00;;;;;-143.57;100.00;65101.44;5120166;27;46247;-41
2023/05/15 03:39:58;;;;;;;;;57.25;42.25;;;;;-143.57;100.00;65101.44;5120088;27;45345;-42
2023/05/15 03:42:24;;;;;;;;;50.25;41.50;;;;;-143.57;100.00;65101.44;5120515;27;45322;-42
2023/05/15 03:44:50;;;;;;;;;56.00;41.25;;;;;-143.57;100.00;65101.44;5120532;27;45524;-40
2023/05/15 03:47:15;;;;;;;;;51.50;39.00;;;;;-143.57;100.00;65101.44;5120201;27;47638;-42
2023/05/15 03:49:41;;;;;;;;;55.50;39.50;;;;;-143.57;100.00;65101.44;5120550;27;45368;-40
2023/05/15 03:52:07;;;;;;;;;48.67;39.00;;;;;-143.57;100.00;65101.44;5118882;27;45349;-40
2023/05/15 03:54:32;;;;;;;;;46.50;38.25;;;;;-143.57;100.00;65101.44;5120292;27;45354;-41
2023/05/15 03:56:58;;;;;;;;;52.75;39.25;;;;;-143.57;100.00;65101.44;5120067;27;46174;-40
2023/05/15 03:59:23;;;;;;;;;44.00;37.00;;;;;-143.57;100.00;65101.44;5119916;27;45476;-41
2023/05/15 04:01:48;;;;;;;;;55.50;41.50;;;;;-143.57;100.00;65101.44;5120078;27;45150;-40
2023/05/15 04:04:14;;;;;;;;;53.50;39.75;;;;;-143.57;100.00;65101.44;5120125;27;45424;-41
2023/05/15 04:06:39;;;;;;;;;47.75;34.50;;;;;-143.57;100.00;65101.44;5119875;27;47374;-40
2023/05/15 04:09:04;;;;;;;;;49.50;37.25;;;;;-143.57;100.00;65101.44;5119870;27;45284;-41
2023/05/15 04:11:30;;;;;;;;;52.75;39.25;;;;;-143.57;100.00;65101.44;5119888;27;45939;-40
2023/05/15 04:13:55;;;;;;;;;61.25;44.00;;;;;-143.57;100.00;65101.44;5119855;27;45544;-41
2023/05/15 04:16:21;;;;;;;;;57.75;38.00;;;;;-143.57;100.00;65101.44;5119406;27;45397;-40
2023/05/15 04:18:46;;;;;;;;;56.75;38.25;;;;;-143.57;100.00;65101.44;5119490;27;45369;-40
2023/05/15 04:21:11;;;;;;;;;45.33;35.33;;;;;-143.57;100.00;65101.44;5119996;27;45479;-41
2023/05/15 04:23:38;;;;;;;;;50.75;37.50;;;;;-143.57;100.00;65101.44;5119835;27;45384;-41
2023/05/15 04:26:04;;;;;;;;;44.75;34.75;;;;;-143.57;100.00;65101.44;5119643;27;45475;-42
2023/05/15 04:28:30;;;;;;;;;55.50;38.50;;;;;-143.57;100.00;65101.44;5119413;27;45367;-42
2023/05/15 04:30:57;;;;;;;;;46.50;38.00;;;;;-143.57;100.00;65101.44;5118912;27;45316;-42
2023/05/15 04:33:22;;;;;;;;;50.50;39.00;;;;;-143.57;100.00;65101.44;5119605;27;45508;-42
2023/05/15 04:35:48;;;;;;;;;55.75;39.25;;;;;-143.57;100.00;65101.44;5119224;27;46138;-43
2023/05/15 04:38:13;;;;;;;;;56.75;37.25;;;;;-143.57;100.00;65101.44;5119480;27;45349;-41
2023/05/15 04:40:38;;;;;;;;;45.00;38.25;;;;;-143.57;100.00;65101.44;5119382;27;45899;-41
2023/05/15 04:43:04;;;;;;;;;53.00;43.00;;;;;-143.57;100.00;65101.44;5119635;27;45319;-41
2023/05/15 04:45:30;;;;;;;;;52.25;38.75;;;;;-143.57;100.00;65101.44;5119211;27;46882;-41
2023/05/15 04:47:55;;;;;;;;;57.00;40.00;;;;;-143.57;100.00;65101.44;5118826;27;45448;-41
2023/05/15 04:50:21;;;;;;;;;55.00;39.00;;;;;-143.57;100.00;65101.44;5119160;27;45480;-42
2023/05/15 04:52:46;;;;;;;;;54.25;37.25;;;;;-143.57;100.00;65101.44;5100805;27;45384;-42
2023/05/15 04:55:11;;;;;;;;;51.75;39.25;;;;;-143.57;100.00;65101.44;5118958;27;45929;-41
2023/05/15 04:57:37;;;;;;;;;60.00;43.00;;;;;-143.57;100.00;65101.44;5118689;27;45332;-42
2023/05/15 05:00:09;;;;;;;;;59.50;42.00;;;;;-143.57;100.00;65101.44;5118700;27;45286;-42
2023/05/15 05:02:34;;;;;;;;;57.00;41.00;;;;;-143.57;100.00;65101.44;5118988;27;45356;-42
2023/05/15 05:05:00;;;;;;;;;52.00;36.00;;;;;-143.57;100.00;65101.44;5117529;27;46275;-41
2023/05/15 05:07:25;;;;;;;;;54.00;34.25;;;;;-143.57;100.00;65101.44;5118596;27;45536;-42
2023/05/15 05:09:50;;;;;;;;;55.75;38.75;;;;;-143.57;100.00;65101.44;5118200;27;49609;-42
2023/05/15 05:12:16;;;;;;;;;55.50;39.25;;;;;-143.57;100.00;65101.44;5119097;27;45289;-41
2023/05/15 05:14:43;;;;;;;;;57.50;37.50;;;;;-143.57;100.00;65101.44;5118090;27;48235;-42
2023/05/15 05:17:08;;;;;;;;;55.25;43.00;;;;;-143.57;100.00;65101.44;5118417;27;45445;-40
2023/05/15 05:19:34;;;;;;;;;54.50;42.00;;;;;-143.57;100.00;65101.44;5118517;27;45425;-41
2023/05/15 05:22:03;;;;;;;;;53.50;43.75;;;;;-143.57;100.00;65101.44;5118458;27;45252;-42
2023/05/15 05:24:28;;;;;;;;;54.75;43.25;;;;;-143.57;100.00;65101.44;5118549;27;46381;-43
2023/05/15 05:26:56;;;;;;;;;50.75;39.25;;;;;-143.57;100.00;65101.44;5118429;27;45263;-42
2023/05/15 05:29:22;;;;;;;;;54.75;38.00;;;;;-143.57;100.00;65101.44;5118785;27;45411;-44
2023/05/15 05:31:47;;;;;;;;;55.50;39.50;;;;;-143.57;100.00;65101.44;5118367;27;45343;-41
2023/05/15 05:34:13;;;;;;;;;45.00;37.00;;;;;-143.57;100.00;65101.44;5117918;27;46024;-44
2023/05/15 05:36:38;;;;;;;;;54.75;41.50;;;;;-143.57;100.00;65101.44;5118372;27;45329;-42
2023/05/15 05:39:03;;;;;;;;;52.25;38.75;;;;;-143.57;100.00;65101.44;5118485;27;45403;-42
2023/05/15 05:41:29;;;;;;;;;47.50;36.75;;;;;-143.57;100.00;65101.44;5118375;27;45302;-41
2023/05/15 05:43:54;;;;;;;;;55.50;40.75;;;;;-143.57;100.00;65101.44;5118071;27;46207;-41
2023/05/15 05:46:19;;;;;;;;;56.25;40.00;;;;;-143.57;100.00;65101.44;5117906;27;46852;-41
2023/05/15 05:48:45;;;;;;;;;53.33;39.00;;;;;-143.57;100.00;65101.44;5118096;27;45482;-42
2023/05/15 05:51:10;;;;;;;;;57.75;38.50;;;;;-143.57;100.00;65101.44;5099411;27;45338;-42
2023/05/15 05:53:35;;;;;;;;;48.75;40.00;;;;;-143.57;100.00;65101.44;5117883;27;46282;-42
2023/05/15 05:56:01;;;;;;;;;42.67;30.67;;;;;-143.57;100.00;65101.44;5117875;27;45481;-42
2023/05/15 05:58:26;;;;;;;;;46.00;35.00;;;;;-143.57;100.00;65101.44;5099932;27;45270;-41
2023/05/15 06:00:52;;;;;;;;;49.67;37.00;;;;;-143.57;100.00;65101.44;5118132;27;45771;-41
2023/05/15 06:03:19;;;;;;;;;45.67;35.67;;;;;-143.57;100.00;65101.44;5117969;27;45370;-42
2023/05/15 06:05:44;;;;;;;;;52.67;37.00;;;;;-143.57;100.00;65101.44;5117272;27;45248;-44
2023/05/15 06:08:10;;;;;;;;;54.33;38.67;;;;;-143.57;100.00;65101.44;5117560;27;45334;-42
2023/05/15 06:10:36;;;;;;;;;51.00;38.00;;;;;-143.57;100.00;65101.44;5117902;27;45497;-42
2023/05/15 06:13:01;;;;;;;;;53.00;36.67;;;;;-143.57;100.00;65101.44;5117774;27;45875;-44
2023/05/15 06:15:27;;;;;;;;;45.33;35.67;;;;;-143.57;100.00;65101.44;5119671;27;45263;-44
2023/05/15 06:17:52;;;;;;;;;45.33;35.00;;;;;-143.57;100.00;65101.44;5124674;27;45854;-42
2023/05/15 06:20:17;;;;;;;;;41.33;35.67;;;;;-143.57;100.00;65101.44;5124997;27;45306;-43
2023/05/15 06:22:43;;;;;;;;;50.33;37.67;;;;;-143.57;100.00;65101.44;5124707;27;45349;-48
2023/05/15 06:25:12;;;;;;;;;46.00;37.33;;;;;-143.57;100.00;65101.44;5124406;27;45355;-46
2023/05/15 06:27:38;;;;;;;;;55.00;36.67;;;;;-143.57;100.00;65101.44;5124650;27;45412;-47
2023/05/15 06:30:05;;;;;;;;;45.33;37.67;;;;;-143.57;100.00;65101.44;5124614;27;45426;-45
2023/05/15 06:32:32;;;;;;;;;44.67;36.00;;;;;-143.57;100.00;65101.44;5123408;27;45461;-43
2023/05/15 06:34:57;;;;;;;;;60.50;42.75;;;;;-143.57;100.00;65101.44;5124219;27;45357;-44
2023/05/15 06:37:23;;;;;;;;;48.33;37.33;;;;;-143.57;100.00;65101.44;5124580;27;45394;-46
2023/05/15 06:39:48;;;;;;;;;46.67;36.67;;;;;-143.57;100.00;65101.44;5124528;27;45321;-45
2023/05/15 06:42:14;;;;;;;;;47.67;36.67;;;;;-143.57;100.00;65101.44;5124164;27;47029;-48
2023/05/15 06:44:39;;;;;;;;;45.00;36.00;;;;;-143.57;100.00;65101.44;5124496;27;45379;-46
2023/05/15 06:47:04;;;;;;;;;43.67;37.33;;;;;-143.57;100.00;65101.44;5124254;27;45417;-48
2023/05/15 06:49:30;;;;;;;;;48.33;31.00;;;;;-143.57;100.00;65101.44;5124551;27;45318;-46
2023/05/15 06:51:56;;;;;;;;;39.33;30.00;;;;;-143.57;100.00;65101.44;5124147;27;45379;-47
2023/05/15 06:54:21;;;;;;;;;46.00;34.00;;;;;-143.57;100.00;65101.44;5124263;27;45339;-44
2023/05/15 06:56:46;;;;;;;;;52.00;33.00;;;;;-143.57;100.00;65101.44;5124298;27;45320;-44
2023/05/15 06:59:12;;;;;;;;;45.00;35.33;;;;;-143.57;100.00;65101.44;5124277;27;45343;-43
2023/05/15 07:01:37;;;;;;;;;47.33;34.00;;;;;-143.57;100.00;65101.44;5123810;27;46678;-45
2023/05/15 07:04:03;;;;;;;;;38.67;32.00;;;;;-143.57;100.00;65101.44;5124092;27;45238;-43
2023/05/15 07:06:30;;;;;;;;;42.67;33.67;;;;;-143.57;100.00;65101.44;5124540;27;45398;-42
2023/05/15 07:08:59;;;;;;;;;43.00;34.33;;;;;-143.57;100.00;65101.44;5124448;27;45445;-45
2023/05/15 07:11:24;;;;;;;;;46.00;35.33;;;;;-143.57;100.00;65101.44;5123617;27;45380;-47
2023/05/15 07:13:51;;;;;;;;;40.33;33.33;;;;;-143.57;100.00;65101.44;5124048;27;45418;-48
2023/05/15 07:16:16;;;;;;;;;44.00;33.67;;;;;-143.57;100.00;65101.44;5124201;27;45301;-45
2023/05/15 07:18:42;;;;;;;;;40.33;31.33;;;;;-143.57;100.00;65101.44;5124445;27;45318;-46
2023/05/15 07:21:07;;;;;;;;;46.00;34.67;;;;;-143.57;100.00;65101.44;5124003;27;45657;-45
2023/05/15 07:23:32;;;;;;;;;41.67;35.00;;;;;-143.57;100.00;65101.44;5124286;27;45217;-46
2023/05/15 07:25:58;;;;;;;;;44.00;35.00;;;;;-143.57;100.00;65101.44;5123764;27;45352;-43
2023/05/15 07:28:23;;;;;;;;;51.67;37.00;;;;;-143.57;100.00;65101.44;5120734;27;45342;-43
2023/05/15 07:30:49;;;;;;;;;45.67;36.33;;;;;-143.57;100.00;65101.44;5120135;27;46015;-41
2023/05/15 07:33:14;;;;;;;;;44.00;35.00;;;;;-143.57;100.00;65101.44;5119855;27;45235;-42
2023/05/15 07:35:40;;;;;;;;;54.67;38.67;;;;;-143.57;100.00;65101.44;5120497;27;45388;-43
2023/05/15 07:38:05;;;;;;;;;45.67;35.67;;;;;-143.57;100.00;65101.44;5120723;27;45410;-41
2023/05/15 07:40:31;;;;;;;;;40.67;35.67;;;;;-143.57;100.00;65101.44;5120282;27;46884;-46
2023/05/15 07:42:57;;;;;;;;;46.00;33.67;;;;;-143.57;100.00;65101.44;5120480;27;45260;-42
2023/05/15 07:45:23;;;;;;;;;45.00;33.67;;;;;-143.57;100.00;65101.44;5121001;27;45279;-46
2023/05/15 07:47:48;;;;;;;;;44.67;30.67;;;;;-143.57;100.00;65101.44;5120391;27;45476;-45
2023/05/15 07:50:15;;;;;;;;;36.00;31.67;;;;;-143.57;100.00;65101.44;5119994;27;46144;-43
2023/05/15 07:52:41;;;;;;;;;37.33;31.00;;;;;-143.57;100.00;65101.44;5120198;27;45516;-48
2023/05/15 07:55:08;;;;;;;;;36.00;31.33;;;;;-143.57;100.00;65101.44;5119831;27;45324;-44
2023/05/15 07:57:34;;;;;;;;;41.67;31.67;;;;;-143.57;100.00;65101.44;5120312;27;45386;-49
2023/05/15 08:00:04;;;;;;;;;33.33;30.67;;;;;-143.57;100.00;65101.44;5119964;27;46918;-47
2023/05/15 08:02:29;;;;;;;;;34.33;32.00;;;;;-143.57;100.00;65101.44;5119483;27;45410;-48
2023/05/15 08:04:55;;;;;;;;;37.67;29.33;;;;;-143.57;100.00;65101.44;5119933;27;45440;-47
2023/05/15 08:07:20;;;;;;;;;41.00;27.67;;;;;-143.57;100.00;65101.44;5120092;27;45408;-45
2023/05/15 08:09:45;;;;;;;;;36.33;31.00;;;;;-143.57;100.00;65101.44;5119796;27;47218;-46
2023/05/15 08:12:19;;;;;;;;;45.00;36.67;;;;;-143.57;100.00;65101.44;5101571;27;45233;-43
2023/05/15 08:14:50;;;;;;;;;38.33;29.67;;;;;-143.57;100.00;65101.44;5120017;27;45316;-41
2023/05/15 08:17:15;;;;;;;;;34.33;30.67;;;;;-143.57;100.00;65101.44;5119741;27;45218;-43
2023/05/15 08:19:41;;;;;;;;;36.33;29.67;;;;;-143.57;100.00;65101.44;5119166;27;45421;-41
2023/05/15 08:22:06;;;;;;;;;41.67;31.33;;;;;-143.57;100.00;65101.44;5119686;27;45640;-40
2023/05/15 08:24:32;;;;;;;;;38.00;30.00;;;;;-143.57;100.00;65101.44;5119686;27;45808;-44
2023/05/15 08:26:57;;;;;;;;;41.00;32.33;;;;;-143.57;100.00;65101.44;5119874;27;45330;-46
2023/05/15 08:29:22;;;;;;;;;30.67;25.67;;;;;-143.57;100.00;65101.44;5119585;27;45408;-47
2023/05/15 08:31:48;;;;;;;;;40.00;30.00;;;;;-143.57;100.00;65101.44;5119121;27;45472;-44
2023/05/15 08:34:13;;;;;;;;;40.00;34.00;;;;;-143.57;100.00;65101.44;5119205;27;45374;-46
2023/05/15 08:36:39;;;;;;;;;38.33;28.33;;;;;-143.57;100.00;65101.44;5119493;27;45327;-46
2023/05/15 08:39:05;;;;;;;;;38.00;31.00;;;;;-143.57;100.00;65101.44;5118437;27;46273;-43
2023/05/15 08:41:45;;;;;;;;;29.67;26.67;;;;;-143.57;100.00;65101.44;5119035;27;45416;-41
2023/05/15 08:44:11;;;;;;;;;38.00;28.00;;;;;-143.57;100.00;65101.44;5119152;27;45377;-42
2023/05/15 08:46:37;;;;;;;;;29.33;27.00;;;;;-143.57;100.00;65101.44;5119235;27;45252;-42
2023/05/15 08:49:13;;;;;;;;;35.33;29.33;;;;;-143.57;100.00;65101.44;5118726;27;45993;-42
2023/05/15 08:51:38;;;;;;;;;37.33;26.67;;;;;-143.57;100.00;65101.44;5119038;27;45377;-46
2023/05/15 08:54:04;;;;;;;;;43.33;28.67;;;;;-143.57;100.00;65101.44;5100595;27;45344;-47
2023/05/15 08:56:29;;;;;;;;;36.33;32.67;;;;;-143.57;100.00;65101.44;5119000;27;45378;-45
2023/05/15 08:58:55;;;;;;;;;35.00;29.33;;;;;-143.57;100.00;65101.44;5118790;27;46868;-47
2023/05/15 09:01:21;;;;;;;;;39.67;31.00;;;;;-143.57;100.00;65101.44;5118918;27;45276;-45
2023/05/15 09:03:46;;;;;;;;;36.00;29.67;;;;;-143.57;100.00;65101.44;5118860;27;45485;-44
2023/05/15 09:06:12;;;;;;;;;36.00;31.67;;;;;-143.57;100.00;65101.44;5118721;27;45266;-46
2023/05/15 09:08:40;;;;;;;;;46.33;34.00;;;;;-143.57;100.00;65101.44;5118695;27;45415;-48
2023/05/15 09:11:06;;;;;;;;;39.33;32.33;;;;;-143.57;100.00;65101.44;5118620;27;45218;-46
2023/05/15 09:13:32;;;;;;;;;42.33;30.00;;;;;-143.57;100.00;65101.44;5118741;27;45391;-47
2023/05/15 09:15:57;;;;;;;;;49.00;34.33;;;;;-143.57;100.00;65101.44;5118973;27;45319;-47
2023/05/15 09:18:23;;;;;;;;;33.33;28.33;;;;;-143.57;100.00;65101.44;5118485;27;45478;-47
2023/05/15 09:20:50;;;;;;;;;43.00;32.67;;;;;-143.57;100.00;65101.44;5118863;27;45443;-47
2023/05/15 09:23:25;;;;;;;;;40.33;33.67;;;;;-143.57;100.00;65101.44;5118485;27;45440;-47
2023/05/15 09:25:55;;;;;;;;;33.33;29.67;;;;;-143.57;100.00;65101.44;5118518;27;45371;-46
2023/05/15 09:28:26;;;;;;;;;40.67;34.00;;;;;-143.57;100.00;65101.44;5117663;27;46472;-46
2023/05/15 09:30:57;;;;;;;;;49.33;35.33;;;;;-143.57;100.00;65101.44;5099852;27;45198;-44
2023/05/15 09:33:37;;;;;;;;;45.67;34.00;;;;;-143.57;100.00;65101.44;5117306;27;45491;-45
2023/05/15 09:36:05;;;;;;;;;20.67;16.33;;;;;-143.57;100.00;65101.44;5118737;27;45218;-46
2023/05/15 09:38:38;;;;;;;;;38.00;33.33;;;;;-143.57;100.00;65101.44;5118094;27;45287;-42
2023/05/15 09:41:06;;;;;;;;;34.67;29.00;;;;;-143.57;100.00;65101.44;5118140;27;45172;-43
2023/05/15 09:43:39;;;;;;;;;40.33;31.67;;;;;-143.57;100.00;65101.44;5118524;27;45461;-44
2023/05/15 09:46:07;;;;;;;;;44.00;34.00;;;;;-143.57;100.00;65101.44;5118773;27;45322;-45
2023/05/15 09:48:37;;;;;;;;;46.67;36.67;;;;;-143.57;100.00;65101.44;5118089;27;46391;-48
2023/05/15 09:51:13;;;;;;;;;43.00;28.67;;;;;-143.57;100.00;65101.44;5116990;27;45273;-44
2023/05/15 09:53:38;;;;;;;;;45.67;34.67;;;;;-143.57;100.00;65101.44;5118301;27;45432;-44
2023/05/15 09:56:04;;;;;;;;;46.67;32.67;;;;;-143.57;100.00;65101.44;5118537;27;45540;-46
2023/05/15 09:58:31;;;;;;;;;48.67;36.33;;;;;-143.57;100.00;65101.44;5118293;27;46269;-43
2023/05/15 10:00:58;;;;;;;;;38.00;30.00;;;;;-143.57;100.00;65101.44;5118261;27;45184;-46
2023/05/15 10:03:23;;;;;;;;;45.33;34.00;;;;;-143.57;100.00;65101.44;5118059;27;45396;-46
2023/05/15 10:05:49;;;;;;;;;42.00;32.33;;;;;-143.57;100.00;65101.44;5118121;27;45341;-46
2023/05/15 10:08:15;;;;;;;;;37.33;31.67;;;;;-143.57;100.00;65101.44;5117970;27;46911;-47
2023/05/15 10:10:41;;;;;;;;;48.00;34.67;;;;;-143.57;100.00;65101.44;5117720;27;45402;-47
2023/05/15 10:13:08;;;;;;;;;38.67;33.33;;;;;-143.57;100.00;65101.44;5118085;27;45391;-42
2023/05/15 10:15:34;;;;;;;;;36.67;32.67;;;;;-143.57;100.00;65101.44;5117979;27;45526;-46
2023/05/15 10:18:01;;;;;;;;;43.00;31.33;;;;;-143.57;100.00;65101.44;5098798;27;46184;-42
2023/05/15 10:20:26;;;;;;;;;44.67;34.33;;;;;-143.57;100.00;65101.44;5117635;27;45370;-43
2023/05/15 10:22:54;;;;;;;;;41.33;34.33;;;;;-143.57;100.00;65101.44;5117701;27;45393;-47
2023/05/15 10:25:35;;;;;;;;;43.33;35.00;;;;;-143.57;100.00;65101.44;5133959;27;45513;-46
2023/05/15 10:28:02;;;;;;;;;53.33;37.67;;;;;-143.57;100.00;65101.44;5117252;27;45796;-44
2023/05/15 10:30:28;;;;;;;;;39.00;33.00;;;;;-143.57;100.00;65101.44;5117227;27;45436;-46
2023/05/15 10:32:55;;;;;;;;;42.67;35.00;;;;;-143.57;100.00;65101.44;5117181;27;45392;-46
2023/05/15 10:35:21;;;;;;;;;51.00;38.33;;;;;-143.57;100.00;65101.44;5117600;27;45388;-46
2023/05/15 10:37:48;;;;;;;;;48.00;38.00;;;;;-143.57;100.00;65101.44;5117091;27;46788;-42
2023/05/15 10:40:14;;;;;;;;;52.00;40.00;;;;;-143.57;100.00;65101.44;5098723;27;45373;-49
2023/05/15 10:42:46;;;;;;;;;45.00;33.00;;;;;-143.57;100.00;65101.44;5117261;27;45327;-45
2023/05/15 10:45:13;;;;;;;;;47.00;35.67;;;;;-143.57;100.00;65101.44;5117672;27;45504;-48
2023/05/15 10:47:41;;;;;;;;;46.33;35.33;;;;;-143.57;100.00;65101.44;5117031;27;46235;-43
2023/05/15 10:50:07;;;;;;;;;43.00;35.67;;;;;-143.57;100.00;65101.44;5116465;27;45364;-47
2023/05/15 10:52:35;;;;;;;;;50.33;37.33;;;;;-143.57;100.00;65101.44;5117161;27;45392;-44